sensor_id;sensor_type;location;lat;lon;timestamp;pressure;altitude;pressure_sealevel;temperature;humidity
32733;BME280;11867;51.198;11.966;2023-04-03T00:00:21;101730.03;;;3.91;80.59
32733;BME280;11867;51.198;11.966;2023-04-03T00:01:23;101730.44;;;3.88;80.60
32733;BME280;11867;51.198;11.966;2023-04-03T00:02:28;101730.41;;;3.74;80.74
32733;BME280;11867;51.198;11.966;2023-04-03T00:03:30;101724.94;;;3.61;80.66
32733;BME280;11867;51.198;11.966;2023-04-03T00:04:32;101736.59;;;3.68;80.71
32733;BME280;11867;51.198;11.966;2023-04-03T00:05:34;101737.56;;;3.54;80.98
32733;BME280;11867;51.198;11.966;2023-04-03T00:06:36;101737.09;;;3.43;81.67
32733;BME280;11867;51.198;11.966;2023-04-03T00:07:40;101732.50;;;3.37;81.89
32733;BME280;11867;51.198;11.966;2023-04-03T00:08:41;101732.72;;;3.42;82.20
32733;BME280;11867;51.198;11.966;2023-04-03T00:09:44;101732.03;;;3.69;81.67
32733;BME280;11867;51.198;11.966;2023-04-03T00:10:45;101737.84;;;3.72;81.10
32733;BME280;11867;51.198;11.966;2023-04-03T00:11:48;101742.56;;;3.63;80.73
32733;BME280;11867;51.198;11.966;2023-04-03T00:12:49;101734.53;;;3.70;80.71
32733;BME280;11867;51.198;11.966;2023-04-03T00:13:52;101743.97;;;3.53;81.14
32733;BME280;11867;51.198;11.966;2023-04-03T00:14:53;101744.06;;;3.73;80.97
32733;BME280;11867;51.198;11.966;2023-04-03T00:15:56;101744.53;;;3.83;80.78
32733;BME280;11867;51.198;11.966;2023-04-03T00:16:57;101737.31;;;3.97;80.07
32733;BME280;11867;51.198;11.966;2023-04-03T00:18:00;101742.50;;;3.92;79.76
32733;BME280;11867;51.198;11.966;2023-04-03T00:19:01;101736.16;;;3.64;80.81
32733;BME280;11867;51.198;11.966;2023-04-03T00:20:04;101740.38;;;3.80;80.73
32733;BME280;11867;51.198;11.966;2023-04-03T00:21:06;101734.56;;;3.77;80.80
32733;BME280;11867;51.198;11.966;2023-04-03T00:22:09;101734.91;;;3.67;80.35
32733;BME280;11867;51.198;11.966;2023-04-03T00:23:12;101741.56;;;3.71;81.06
32733;BME280;11867;51.198;11.966;2023-04-03T00:24:15;101735.41;;;3.84;81.08
32733;BME280;11867;51.198;11.966;2023-04-03T00:25:16;101732.94;;;3.89;80.75
32733;BME280;11867;51.198;11.966;2023-04-03T00:26:18;101746.63;;;3.88;80.41
32733;BME280;11867;51.198;11.966;2023-04-03T00:27:20;101735.38;;;3.77;80.39
32733;BME280;11867;51.198;11.966;2023-04-03T00:28:22;101743.50;;;3.84;80.10
32733;BME280;11867;51.198;11.966;2023-04-03T00:29:24;101735.28;;;3.57;80.86
32733;BME280;11867;51.198;11.966;2023-04-03T00:30:26;101737.41;;;3.69;80.74
32733;BME280;11867;51.198;11.966;2023-04-03T00:31:28;101736.47;;;3.41;80.96
32733;BME280;11867;51.198;11.966;2023-04-03T00:32:31;101745.09;;;2.74;83.45
32733;BME280;11867;51.198;11.966;2023-04-03T00:33:32;101751.16;;;2.54;84.85
32733;BME280;11867;51.198;11.966;2023-04-03T00:34:35;101749.38;;;2.90;84.82
32733;BME280;11867;51.198;11.966;2023-04-03T00:35:36;101749.50;;;3.10;83.65
32733;BME280;11867;51.198;11.966;2023-04-03T00:36:39;101751.03;;;3.19;82.87
32733;BME280;11867;51.198;11.966;2023-04-03T00:37:41;101744.84;;;3.25;83.13
32733;BME280;11867;51.198;11.966;2023-04-03T00:38:45;101749.69;;;3.36;82.37
32733;BME280;11867;51.198;11.966;2023-04-03T00:39:47;101750.50;;;3.37;82.02
32733;BME280;11867;51.198;11.966;2023-04-03T00:40:49;101750.16;;;3.47;81.86
32733;BME280;11867;51.198;11.966;2023-04-03T00:41:51;101750.00;;;3.55;81.86
32733;BME280;11867;51.198;11.966;2023-04-03T00:42:55;101753.44;;;3.35;81.27
32733;BME280;11867;51.198;11.966;2023-04-03T00:43:58;101749.66;;;3.30;82.29
32733;BME280;11867;51.198;11.966;2023-04-03T00:46:21;101750.66;;;2.94;83.31
32733;BME280;11867;51.198;11.966;2023-04-03T00:47:24;101750.13;;;3.12;83.18
32733;BME280;11867;51.198;11.966;2023-04-03T00:48:26;101755.03;;;3.01;82.87
32733;BME280;11867;51.198;11.966;2023-04-03T00:49:30;101759.28;;;3.11;82.56
32733;BME280;11867;51.198;11.966;2023-04-03T00:50:31;101751.72;;;3.28;82.98
32733;BME280;11867;51.198;11.966;2023-04-03T00:51:35;101752.63;;;3.41;81.91
32733;BME280;11867;51.198;11.966;2023-04-03T00:52:37;101754.06;;;3.37;81.55
32733;BME280;11867;51.198;11.966;2023-04-03T00:53:41;101747.09;;;3.50;81.26
32733;BME280;11867;51.198;11.966;2023-04-03T00:54:47;101753.34;;;3.29;82.03
32733;BME280;11867;51.198;11.966;2023-04-03T00:55:50;101759.31;;;3.17;82.38
32733;BME280;11867;51.198;11.966;2023-04-03T00:56:53;101751.47;;;3.22;82.84
32733;BME280;11867;51.198;11.966;2023-04-03T00:57:56;101742.69;;;3.49;82.19
32733;BME280;11867;51.198;11.966;2023-04-03T00:59:00;101757.88;;;3.21;81.98
32733;BME280;11867;51.198;11.966;2023-04-03T01:00:05;101748.81;;;3.29;82.06
32733;BME280;11867;51.198;11.966;2023-04-03T01:01:08;101747.59;;;3.32;82.16
32733;BME280;11867;51.198;11.966;2023-04-03T01:02:14;101746.00;;;3.44;81.59
32733;BME280;11867;51.198;11.966;2023-04-03T01:03:15;101745.91;;;3.31;81.67
32733;BME280;11867;51.198;11.966;2023-04-03T01:04:26;101749.19;;;3.26;81.68
32733;BME280;11867;51.198;11.966;2023-04-03T01:05:28;101751.63;;;3.14;81.57
32733;BME280;11867;51.198;11.966;2023-04-03T01:06:31;101752.28;;;3.16;81.54
32733;BME280;11867;51.198;11.966;2023-04-03T01:07:34;101754.81;;;3.25;81.41
32733;BME280;11867;51.198;11.966;2023-04-03T01:08:38;101754.91;;;3.44;81.03
32733;BME280;11867;51.198;11.966;2023-04-03T01:09:39;101755.78;;;3.17;81.54
32733;BME280;11867;51.198;11.966;2023-04-03T01:10:43;101760.53;;;3.15;81.95
32733;BME280;11867;51.198;11.966;2023-04-03T01:11:46;101756.66;;;3.24;81.80
32733;BME280;11867;51.198;11.966;2023-04-03T01:12:48;101758.00;;;3.07;81.11
32733;BME280;11867;51.198;11.966;2023-04-03T01:13:50;101757.38;;;2.83;82.21
32733;BME280;11867;51.198;11.966;2023-04-03T01:14:53;101753.16;;;2.74;83.04
32733;BME280;11867;51.198;11.966;2023-04-03T01:15:55;101760.28;;;2.81;82.78
32733;BME280;11867;51.198;11.966;2023-04-03T01:16:57;101752.13;;;2.96;82.36
32733;BME280;11867;51.198;11.966;2023-04-03T01:17:59;101761.94;;;3.04;81.84
32733;BME280;11867;51.198;11.966;2023-04-03T01:19:02;101758.59;;;3.02;81.73
32733;BME280;11867;51.198;11.966;2023-04-03T01:21:44;101757.00;;;2.86;82.65
32733;BME280;11867;51.198;11.966;2023-04-03T01:22:53;101761.19;;;3.17;82.49
32733;BME280;11867;51.198;11.966;2023-04-03T01:23:59;101761.09;;;3.38;81.60
32733;BME280;11867;51.198;11.966;2023-04-03T01:25:04;101759.72;;;3.14;80.78
32733;BME280;11867;51.198;11.966;2023-04-03T01:26:08;101762.25;;;3.22;81.34
32733;BME280;11867;51.198;11.966;2023-04-03T01:27:11;101765.53;;;3.18;81.23
32733;BME280;11867;51.198;11.966;2023-04-03T01:28:14;101764.47;;;3.12;81.15
32733;BME280;11867;51.198;11.966;2023-04-03T01:29:17;101759.69;;;2.86;82.37
32733;BME280;11867;51.198;11.966;2023-04-03T01:30:19;101775.19;;;3.06;82.48
32733;BME280;11867;51.198;11.966;2023-04-03T01:31:23;101768.03;;;3.19;81.22
32733;BME280;11867;51.198;11.966;2023-04-03T01:32:27;101772.97;;;2.88;81.54
32733;BME280;11867;51.198;11.966;2023-04-03T01:33:29;101768.56;;;2.80;82.14
32733;BME280;11867;51.198;11.966;2023-04-03T01:34:31;101778.91;;;3.05;82.41
32733;BME280;11867;51.198;11.966;2023-04-03T01:35:33;101765.69;;;3.10;81.69
32733;BME280;11867;51.198;11.966;2023-04-03T01:36:35;101776.75;;;2.93;81.91
32733;BME280;11867;51.198;11.966;2023-04-03T01:37:37;101770.34;;;2.73;82.24
32733;BME280;11867;51.198;11.966;2023-04-03T01:38:39;101776.50;;;2.67;82.74
32733;BME280;11867;51.198;11.966;2023-04-03T01:39:42;101776.19;;;2.55;83.28
32733;BME280;11867;51.198;11.966;2023-04-03T01:40:43;101775.09;;;2.49;83.73
32733;BME280;11867;51.198;11.966;2023-04-03T01:41:46;101783.44;;;2.54;83.17
32733;BME280;11867;51.198;11.966;2023-04-03T01:42:48;101782.41;;;2.55;83.86
32733;BME280;11867;51.198;11.966;2023-04-03T01:43:50;101774.41;;;2.62;83.36
32733;BME280;11867;51.198;11.966;2023-04-03T01:44:52;101781.13;;;2.73;82.82
32733;BME280;11867;51.198;11.966;2023-04-03T01:45:54;101784.03;;;2.71;82.73
32733;BME280;11867;51.198;11.966;2023-04-03T01:46:56;101783.16;;;2.71;82.55
32733;BME280;11867;51.198;11.966;2023-04-03T01:48:00;101788.44;;;2.36;83.75
32733;BME280;11867;51.198;11.966;2023-04-03T01:49:01;101788.22;;;2.16;84.80
32733;BME280;11867;51.198;11.966;2023-04-03T01:50:04;101786.53;;;2.15;84.90
32733;BME280;11867;51.198;11.966;2023-04-03T01:51:06;101786.75;;;1.98;85.41
32733;BME280;11867;51.198;11.966;2023-04-03T01:52:08;101790.53;;;2.04;85.67
32733;BME280;11867;51.198;11.966;2023-04-03T01:53:09;101789.34;;;1.92;85.71
32733;BME280;11867;51.198;11.966;2023-04-03T01:54:12;101788.97;;;2.10;85.52
32733;BME280;11867;51.198;11.966;2023-04-03T01:55:13;101795.81;;;2.12;85.00
32733;BME280;11867;51.198;11.966;2023-04-03T01:56:16;101790.38;;;2.27;84.77
32733;BME280;11867;51.198;11.966;2023-04-03T01:57:17;101794.34;;;2.46;83.81
32733;BME280;11867;51.198;11.966;2023-04-03T01:58:20;101802.94;;;2.56;82.89
32733;BME280;11867;51.198;11.966;2023-04-03T01:59:21;101794.75;;;2.28;83.69
32733;BME280;11867;51.198;11.966;2023-04-03T02:00:24;101802.00;;;2.28;83.39
32733;BME280;11867;51.198;11.966;2023-04-03T02:01:25;101805.59;;;2.35;83.12
32733;BME280;11867;51.198;11.966;2023-04-03T02:02:28;101798.22;;;2.22;83.33
32733;BME280;11867;51.198;11.966;2023-04-03T02:03:31;101800.22;;;2.35;83.46
32733;BME280;11867;51.198;11.966;2023-04-03T02:04:33;101796.06;;;2.54;82.89
32733;BME280;11867;51.198;11.966;2023-04-03T02:05:34;101799.78;;;2.74;81.91
32733;BME280;11867;51.198;11.966;2023-04-03T02:06:37;101800.94;;;2.65;81.25
32733;BME280;11867;51.198;11.966;2023-04-03T02:07:38;101799.50;;;2.48;82.21
32733;BME280;11867;51.198;11.966;2023-04-03T02:08:41;101801.91;;;2.36;82.09
32733;BME280;11867;51.198;11.966;2023-04-03T02:09:42;101798.75;;;2.32;83.14
32733;BME280;11867;51.198;11.966;2023-04-03T02:10:46;101800.19;;;2.13;83.38
32733;BME280;11867;51.198;11.966;2023-04-03T02:11:48;101801.63;;;2.31;83.07
32733;BME280;11867;51.198;11.966;2023-04-03T02:12:50;101813.28;;;2.01;83.19
32733;BME280;11867;51.198;11.966;2023-04-03T02:13:51;101808.84;;;1.94;83.78
32733;BME280;11867;51.198;11.966;2023-04-03T02:14:54;101807.41;;;2.28;83.48
32733;BME280;11867;51.198;11.966;2023-04-03T02:15:55;101804.53;;;2.51;82.78
32733;BME280;11867;51.198;11.966;2023-04-03T02:16:58;101810.69;;;2.66;82.10
32733;BME280;11867;51.198;11.966;2023-04-03T02:18:02;101812.44;;;2.52;81.19
32733;BME280;11867;51.198;11.966;2023-04-03T02:19:09;101816.06;;;2.45;81.60
32733;BME280;11867;51.198;11.966;2023-04-03T02:20:10;101808.59;;;2.25;81.98
32733;BME280;11867;51.198;11.966;2023-04-03T02:21:13;101808.09;;;2.36;82.00
32733;BME280;11867;51.198;11.966;2023-04-03T02:22:14;101811.16;;;2.33;82.44
32733;BME280;11867;51.198;11.966;2023-04-03T02:23:17;101809.06;;;2.29;82.15
32733;BME280;11867;51.198;11.966;2023-04-03T02:24:18;101804.25;;;2.24;82.54
32733;BME280;11867;51.198;11.966;2023-04-03T02:25:20;101808.56;;;1.89;83.41
32733;BME280;11867;51.198;11.966;2023-04-03T02:26:22;101810.31;;;1.81;84.59
32733;BME280;11867;51.198;11.966;2023-04-03T02:27:24;101810.31;;;1.81;84.46
32733;BME280;11867;51.198;11.966;2023-04-03T02:28:26;101811.91;;;1.61;85.33
32733;BME280;11867;51.198;11.966;2023-04-03T02:29:28;101814.41;;;1.77;85.48
32733;BME280;11867;51.198;11.966;2023-04-03T02:30:30;101817.66;;;1.88;85.08
32733;BME280;11867;51.198;11.966;2023-04-03T02:31:32;101812.84;;;1.83;85.54
32733;BME280;11867;51.198;11.966;2023-04-03T02:32:34;101809.50;;;1.81;84.87
32733;BME280;11867;51.198;11.966;2023-04-03T02:33:36;101813.66;;;1.84;85.01
32733;BME280;11867;51.198;11.966;2023-04-03T02:34:39;101812.91;;;1.90;85.14
32733;BME280;11867;51.198;11.966;2023-04-03T02:35:42;101809.75;;;2.01;84.76
32733;BME280;11867;51.198;11.966;2023-04-03T02:36:43;101824.44;;;1.54;85.58
32733;BME280;11867;51.198;11.966;2023-04-03T02:37:46;101817.94;;;1.63;86.17
32733;BME280;11867;51.198;11.966;2023-04-03T02:38:47;101819.63;;;1.64;85.60
32733;BME280;11867;51.198;11.966;2023-04-03T02:39:50;101815.81;;;1.88;85.20
32733;BME280;11867;51.198;11.966;2023-04-03T02:40:52;101820.34;;;1.88;85.30
32733;BME280;11867;51.198;11.966;2023-04-03T02:41:54;101825.44;;;1.53;85.72
32733;BME280;11867;51.198;11.966;2023-04-03T02:42:56;101814.97;;;1.58;85.97
32733;BME280;11867;51.198;11.966;2023-04-03T02:43:58;101822.00;;;1.44;85.78
32733;BME280;11867;51.198;11.966;2023-04-03T02:45:00;101823.41;;;1.55;86.44
32733;BME280;11867;51.198;11.966;2023-04-03T02:46:02;101820.44;;;1.79;85.94
32733;BME280;11867;51.198;11.966;2023-04-03T02:47:04;101819.63;;;1.64;85.49
32733;BME280;11867;51.198;11.966;2023-04-03T02:48:07;101827.50;;;1.66;85.78
32733;BME280;11867;51.198;11.966;2023-04-03T02:49:08;101819.44;;;1.80;85.47
32733;BME280;11867;51.198;11.966;2023-04-03T02:50:12;101825.44;;;1.97;84.97
32733;BME280;11867;51.198;11.966;2023-04-03T02:51:13;101823.97;;;1.95;84.69
32733;BME280;11867;51.198;11.966;2023-04-03T02:52:16;101830.63;;;2.14;84.37
32733;BME280;11867;51.198;11.966;2023-04-03T02:53:18;101827.47;;;2.10;83.19
32733;BME280;11867;51.198;11.966;2023-04-03T02:54:20;101829.25;;;2.03;83.24
32733;BME280;11867;51.198;11.966;2023-04-03T02:55:23;101827.09;;;1.84;83.77
32733;BME280;11867;51.198;11.966;2023-04-03T02:56:25;101828.41;;;1.73;84.42
32733;BME280;11867;51.198;11.966;2023-04-03T02:57:28;101828.97;;;1.53;85.50
32733;BME280;11867;51.198;11.966;2023-04-03T02:58:33;101828.25;;;1.74;84.60
32733;BME280;11867;51.198;11.966;2023-04-03T02:59:34;101834.53;;;1.67;85.13
32733;BME280;11867;51.198;11.966;2023-04-03T03:00:37;101835.94;;;1.92;84.85
32733;BME280;11867;51.198;11.966;2023-04-03T03:01:39;101838.31;;;2.02;83.85
32733;BME280;11867;51.198;11.966;2023-04-03T03:02:41;101837.03;;;1.98;83.95
32733;BME280;11867;51.198;11.966;2023-04-03T03:03:43;101843.72;;;1.87;83.87
32733;BME280;11867;51.198;11.966;2023-04-03T03:04:45;101836.75;;;2.08;83.43
32733;BME280;11867;51.198;11.966;2023-04-03T03:05:48;101835.56;;;1.95;83.72
32733;BME280;11867;51.198;11.966;2023-04-03T03:06:51;101831.22;;;1.94;83.79
32733;BME280;11867;51.198;11.966;2023-04-03T03:07:53;101831.94;;;1.88;83.77
32733;BME280;11867;51.198;11.966;2023-04-03T03:08:56;101841.00;;;2.02;83.75
32733;BME280;11867;51.198;11.966;2023-04-03T03:09:58;101833.59;;;2.04;83.43
32733;BME280;11867;51.198;11.966;2023-04-03T03:11:00;101832.88;;;1.66;83.85
32733;BME280;11867;51.198;11.966;2023-04-03T03:12:02;101843.63;;;1.66;84.87
32733;BME280;11867;51.198;11.966;2023-04-03T03:13:04;101841.28;;;1.77;84.36
32733;BME280;11867;51.198;11.966;2023-04-03T03:14:06;101844.38;;;1.59;84.81
32733;BME280;11867;51.198;11.966;2023-04-03T03:15:08;101838.22;;;1.51;84.61
32733;BME280;11867;51.198;11.966;2023-04-03T03:16:10;101838.03;;;1.67;84.87
32733;BME280;11867;51.198;11.966;2023-04-03T03:17:12;101838.59;;;1.63;84.49
32733;BME280;11867;51.198;11.966;2023-04-03T03:18:14;101840.28;;;1.64;85.03
32733;BME280;11867;51.198;11.966;2023-04-03T03:19:16;101837.78;;;1.47;nan
32733;BME280;11867;51.198;11.966;2023-04-03T03:20:18;101838.34;;;1.72;84.77
32733;BME280;11867;51.198;11.966;2023-04-03T03:21:21;101844.25;;;1.53;84.98
32733;BME280;11867;51.198;11.966;2023-04-03T03:22:23;101843.81;;;1.49;85.17
32733;BME280;11867;51.198;11.966;2023-04-03T03:23:26;101847.59;;;1.55;85.11
32733;BME280;11867;51.198;11.966;2023-04-03T03:24:28;101844.81;;;1.63;84.60
32733;BME280;11867;51.198;11.966;2023-04-03T03:25:30;101845.56;;;1.87;84.38
32733;BME280;11867;51.198;11.966;2023-04-03T03:26:32;101844.63;;;1.79;83.52
32733;BME280;11867;51.198;11.966;2023-04-03T03:27:34;101851.69;;;1.66;83.77
32733;BME280;11867;51.198;11.966;2023-04-03T03:28:36;101843.97;;;1.48;84.37
32733;BME280;11867;51.198;11.966;2023-04-03T03:29:38;101845.47;;;1.65;84.65
32733;BME280;11867;51.198;11.966;2023-04-03T03:30:40;101850.41;;;1.61;84.06
32733;BME280;11867;51.198;11.966;2023-04-03T03:31:42;101851.41;;;1.60;84.33
32733;BME280;11867;51.198;11.966;2023-04-03T03:32:45;101845.53;;;1.42;84.23
32733;BME280;11867;51.198;11.966;2023-04-03T03:33:47;101847.28;;;1.20;85.32
32733;BME280;11867;51.198;11.966;2023-04-03T03:34:49;101848.13;;;1.35;85.74
32733;BME280;11867;51.198;11.966;2023-04-03T03:35:51;101851.09;;;1.03;86.30
32733;BME280;11867;51.198;11.966;2023-04-03T03:36:55;101850.47;;;0.77;87.27
32733;BME280;11867;51.198;11.966;2023-04-03T03:37:57;101852.91;;;0.87;87.54
32733;BME280;11867;51.198;11.966;2023-04-03T03:38:59;101852.47;;;0.98;87.56
32733;BME280;11867;51.198;11.966;2023-04-03T03:40:01;101856.16;;;1.20;86.96
32733;BME280;11867;51.198;11.966;2023-04-03T03:41:04;101852.78;;;1.04;86.82
32733;BME280;11867;51.198;11.966;2023-04-03T03:42:06;101854.25;;;1.06;87.22
32733;BME280;11867;51.198;11.966;2023-04-03T03:43:08;101853.06;;;1.09;86.77
32733;BME280;11867;51.198;11.966;2023-04-03T03:44:10;101856.53;;;0.94;87.10
32733;BME280;11867;51.198;11.966;2023-04-03T03:45:12;101850.38;;;1.09;87.26
32733;BME280;11867;51.198;11.966;2023-04-03T03:46:14;101853.66;;;1.19;86.46
32733;BME280;11867;51.198;11.966;2023-04-03T03:47:15;101859.47;;;1.08;86.39
32733;BME280;11867;51.198;11.966;2023-04-03T03:48:18;101856.03;;;0.91;86.87
32733;BME280;11867;51.198;11.966;2023-04-03T03:49:19;101856.00;;;0.99;87.13
32733;BME280;11867;51.198;11.966;2023-04-03T03:50:22;101855.91;;;1.07;87.07
32733;BME280;11867;51.198;11.966;2023-04-03T03:51:23;101862.72;;;0.95;86.79
32733;BME280;11867;51.198;11.966;2023-04-03T03:52:27;101860.34;;;1.00;86.77
32733;BME280;11867;51.198;11.966;2023-04-03T03:53:28;101869.84;;;0.88;87.32
32733;BME280;11867;51.198;11.966;2023-04-03T03:54:31;101856.03;;;0.91;87.64
32733;BME280;11867;51.198;11.966;2023-04-03T03:55:32;101860.69;;;0.97;87.14
32733;BME280;11867;51.198;11.966;2023-04-03T03:56:35;101864.06;;;1.22;86.79
32733;BME280;11867;51.198;11.966;2023-04-03T03:57:37;101862.09;;;1.16;86.07
32733;BME280;11867;51.198;11.966;2023-04-03T03:58:40;101865.28;;;1.11;86.65
32733;BME280;11867;51.198;11.966;2023-04-03T03:59:41;101864.03;;;0.99;86.71
32733;BME280;11867;51.198;11.966;2023-04-03T04:00:45;101865.41;;;0.72;87.50
32733;BME280;11867;51.198;11.966;2023-04-03T04:01:46;101878.84;;;0.72;88.31
32733;BME280;11867;51.198;11.966;2023-04-03T04:02:48;101873.69;;;0.93;87.89
32733;BME280;11867;51.198;11.966;2023-04-03T04:03:50;101865.38;;;0.80;88.37
32733;BME280;11867;51.198;11.966;2023-04-03T04:04:55;101871.69;;;1.10;87.85
32733;BME280;11867;51.198;11.966;2023-04-03T04:05:56;101870.88;;;1.10;87.15
32733;BME280;11867;51.198;11.966;2023-04-03T04:06:59;101875.16;;;0.73;87.84
32733;BME280;11867;51.198;11.966;2023-04-03T04:08:02;101872.41;;;1.04;87.82
32733;BME280;11867;51.198;11.966;2023-04-03T04:09:05;101876.66;;;1.36;86.56
32733;BME280;11867;51.198;11.966;2023-04-03T04:10:07;101882.44;;;1.63;85.49
32733;BME280;11867;51.198;11.966;2023-04-03T04:11:09;101872.09;;;1.75;84.37
32733;BME280;11867;51.198;11.966;2023-04-03T04:12:11;101876.81;;;1.88;83.62
32733;BME280;11867;51.198;11.966;2023-04-03T04:13:13;101877.38;;;1.83;83.27
32733;BME280;11867;51.198;11.966;2023-04-03T04:14:15;101881.19;;;1.89;83.32
32733;BME280;11867;51.198;11.966;2023-04-03T04:15:17;101871.34;;;1.96;82.77
32733;BME280;11867;51.198;11.966;2023-04-03T04:16:18;101876.47;;;1.91;82.49
32733;BME280;11867;51.198;11.966;2023-04-03T04:17:21;101879.41;;;1.81;82.67
32733;BME280;11867;51.198;11.966;2023-04-03T04:18:23;101880.16;;;1.90;82.56
32733;BME280;11867;51.198;11.966;2023-04-03T04:19:25;101883.66;;;1.75;82.56
32733;BME280;11867;51.198;11.966;2023-04-03T04:20:27;101882.56;;;1.70;83.50
32733;BME280;11867;51.198;11.966;2023-04-03T04:21:29;101883.16;;;1.80;83.46
32733;BME280;11867;51.198;11.966;2023-04-03T04:22:31;101886.56;;;1.89;82.96
32733;BME280;11867;51.198;11.966;2023-04-03T04:23:34;101884.44;;;1.84;82.77
32733;BME280;11867;51.198;11.966;2023-04-03T04:24:36;101882.59;;;1.32;84.67
32733;BME280;11867;51.198;11.966;2023-04-03T04:25:40;101884.81;;;1.28;85.24
32733;BME280;11867;51.198;11.966;2023-04-03T04:26:41;101896.22;;;1.30;85.25
32733;BME280;11867;51.198;11.966;2023-04-03T04:27:43;101890.50;;;0.87;86.24
32733;BME280;11867;51.198;11.966;2023-04-03T04:28:45;101889.50;;;0.57;87.76
32733;BME280;11867;51.198;11.966;2023-04-03T04:29:47;101890.78;;;0.38;89.38
32733;BME280;11867;51.198;11.966;2023-04-03T04:30:49;101882.16;;;0.51;89.37
32733;BME280;11867;51.198;11.966;2023-04-03T04:31:51;101889.06;;;0.45;88.69
32733;BME280;11867;51.198;11.966;2023-04-03T04:32:53;101883.16;;;0.81;88.57
32733;BME280;11867;51.198;11.966;2023-04-03T04:33:55;101885.78;;;0.89;87.90
32733;BME280;11867;51.198;11.966;2023-04-03T04:34:56;101894.44;;;0.99;87.21
32733;BME280;11867;51.198;11.966;2023-04-03T04:36:02;101885.88;;;1.19;86.72
32733;BME280;11867;51.198;11.966;2023-04-03T04:37:08;101885.69;;;1.44;86.01
32733;BME280;11867;51.198;11.966;2023-04-03T04:38:10;101887.19;;;1.61;85.16
32733;BME280;11867;51.198;11.966;2023-04-03T04:39:13;101891.81;;;1.67;84.46
32733;BME280;11867;51.198;11.966;2023-04-03T04:40:15;101891.81;;;1.67;83.85
32733;BME280;11867;51.198;11.966;2023-04-03T04:41:17;101894.44;;;1.75;83.56
32733;BME280;11867;51.198;11.966;2023-04-03T04:42:22;101896.66;;;1.72;83.62
32733;BME280;11867;51.198;11.966;2023-04-03T04:43:23;101897.69;;;1.86;83.24
32733;BME280;11867;51.198;11.966;2023-04-03T04:44:26;101902.41;;;1.84;83.12
32733;BME280;11867;51.198;11.966;2023-04-03T04:45:30;101902.97;;;1.64;83.10
32733;BME280;11867;51.198;11.966;2023-04-03T04:46:32;101900.03;;;1.51;83.53
32733;BME280;11867;51.198;11.966;2023-04-03T04:47:34;101902.91;;;1.11;84.50
32733;BME280;11867;51.198;11.966;2023-04-03T04:48:36;101907.59;;;1.32;85.01
32733;BME280;11867;51.198;11.966;2023-04-03T04:49:38;101902.97;;;1.26;85.01
32733;BME280;11867;51.198;11.966;2023-04-03T04:50:40;101900.81;;;1.21;84.73
32733;BME280;11867;51.198;11.966;2023-04-03T04:51:42;101900.88;;;1.13;84.73
32733;BME280;11867;51.198;11.966;2023-04-03T04:52:52;101905.72;;;1.18;85.39
32733;BME280;11867;51.198;11.966;2023-04-03T04:53:53;101904.69;;;1.19;85.30
32733;BME280;11867;51.198;11.966;2023-04-03T04:55:05;101904.63;;;1.27;85.31
32733;BME280;11867;51.198;11.966;2023-04-03T04:56:07;101910.56;;;1.23;85.61
32733;BME280;11867;51.198;11.966;2023-04-03T04:57:09;101901.91;;;1.12;85.61
32733;BME280;11867;51.198;11.966;2023-04-03T04:58:12;101907.44;;;1.11;86.17
32733;BME280;11867;51.198;11.966;2023-04-03T04:59:14;101900.47;;;1.25;85.49
32733;BME280;11867;51.198;11.966;2023-04-03T05:00:16;101907.03;;;1.22;85.66
32733;BME280;11867;51.198;11.966;2023-04-03T05:01:18;101908.56;;;1.39;84.83
32733;BME280;11867;51.198;11.966;2023-04-03T05:02:20;101906.41;;;1.35;84.25
32733;BME280;11867;51.198;11.966;2023-04-03T05:03:22;101910.78;;;1.51;84.05
32733;BME280;11867;51.198;11.966;2023-04-03T05:04:25;101903.13;;;1.63;83.51
32733;BME280;11867;51.198;11.966;2023-04-03T05:05:26;101907.69;;;1.62;83.33
32733;BME280;11867;51.198;11.966;2023-04-03T05:06:29;101916.03;;;1.67;83.00
32733;BME280;11867;51.198;11.966;2023-04-03T05:07:31;101911.03;;;1.64;82.90
32733;BME280;11867;51.198;11.966;2023-04-03T05:08:33;101913.47;;;1.74;83.07
32733;BME280;11867;51.198;11.966;2023-04-03T05:09:35;101907.53;;;1.78;82.86
32733;BME280;11867;51.198;11.966;2023-04-03T05:10:39;101913.56;;;1.80;82.51
32733;BME280;11867;51.198;11.966;2023-04-03T05:11:41;101916.72;;;1.84;82.32
32733;BME280;11867;51.198;11.966;2023-04-03T05:12:44;101912.72;;;1.95;82.08
32733;BME280;11867;51.198;11.966;2023-04-03T05:13:46;101922.84;;;1.55;82.56
32733;BME280;11867;51.198;11.966;2023-04-03T05:14:48;101920.75;;;1.27;83.58
32733;BME280;11867;51.198;11.966;2023-04-03T05:15:50;101922.25;;;1.30;83.83
32733;BME280;11867;51.198;11.966;2023-04-03T05:16:52;101922.59;;;1.50;83.84
32733;BME280;11867;51.198;11.966;2023-04-03T05:17:55;101922.66;;;1.41;83.59
32733;BME280;11867;51.198;11.966;2023-04-03T05:18:57;101919.66;;;1.13;84.03
32733;BME280;11867;51.198;11.966;2023-04-03T05:19:59;101925.84;;;0.68;86.09
32733;BME280;11867;51.198;11.966;2023-04-03T05:21:02;101922.69;;;0.95;86.70
32733;BME280;11867;51.198;11.966;2023-04-03T05:22:03;101923.50;;;1.19;86.01
32733;BME280;11867;51.198;11.966;2023-04-03T05:23:06;101926.84;;;1.21;85.60
32733;BME280;11867;51.198;11.966;2023-04-03T05:24:08;101917.41;;;1.25;85.06
32733;BME280;11867;51.198;11.966;2023-04-03T05:25:10;101925.81;;;1.45;84.77
32733;BME280;11867;51.198;11.966;2023-04-03T05:26:13;101922.06;;;1.69;84.27
32733;BME280;11867;51.198;11.966;2023-04-03T05:27:16;101929.84;;;1.64;83.59
32733;BME280;11867;51.198;11.966;2023-04-03T05:28:18;101928.88;;;1.19;84.03
32733;BME280;11867;51.198;11.966;2023-04-03T05:29:20;101927.56;;;1.15;84.73